createdAt,value
2019-04-05T00:00:47.963Z,98416.13
2019-04-05T00:03:53.118Z,98418.06
2019-04-05T00:06:58.224Z,98428.78
2019-04-05T00:10:03.433Z,98431.45
2019-04-05T00:13:09.201Z,98430.64
2019-04-05T00:16:14.538Z,98427.57
2019-04-05T00:19:19.750Z,98426.62
2019-04-05T00:22:24.987Z,98418.51
2019-04-05T00:25:30.229Z,98423.48
2019-04-05T00:28:35.620Z,98423.86
2019-04-05T00:31:40.967Z,98424.76
2019-04-05T00:34:46.218Z,98418.36
2019-04-05T00:37:51.411Z,98414.49
2019-04-05T00:40:56.874Z,98416.58
2019-04-05T00:44:02.154Z,98426.16
2019-04-05T00:47:07.502Z,98425.05
2019-04-05T00:50:13.901Z,98415.26
2019-04-05T00:53:19.032Z,98405.79
2019-04-05T00:56:24.230Z,98407.05
2019-04-05T00:59:29.531Z,98406.89
2019-04-05T01:02:35.037Z,98412.84
2019-04-05T01:05:40.166Z,98426.39
2019-04-05T01:08:45.305Z,98420.56
2019-04-05T01:11:50.533Z,98410.86
2019-04-05T01:14:56.537Z,98401.49
2019-04-05T01:18:01.982Z,98407.59
2019-04-05T01:21:09.054Z,98408.10
2019-04-05T01:24:15.538Z,98409.59
2019-04-05T01:27:22.281Z,98396.50
2019-04-05T01:30:27.435Z,98394.55
2019-04-05T01:33:32.948Z,98403.20
2019-04-05T01:36:38.128Z,98408.39
2019-04-05T01:39:43.395Z,98408.02
2019-04-05T01:42:48.756Z,98409.44
2019-04-05T01:45:55.919Z,98412.61
2019-04-05T01:49:03.382Z,98409.44
2019-04-05T01:52:08.774Z,98397.98
2019-04-05T01:55:14.702Z,98389.42
2019-04-05T01:58:20.029Z,98383.06
2019-04-05T02:01:25.132Z,98387.00
2019-04-05T02:04:30.254Z,98385.06
2019-04-05T02:07:35.714Z,98396.14
2019-04-05T02:10:41.027Z,98392.70
2019-04-05T02:13:46.145Z,98404.22
2019-04-05T02:16:51.427Z,98419.91
2019-04-05T02:19:56.699Z,98419.98
2019-04-05T02:23:01.954Z,98438.27
2019-04-05T02:26:07.160Z,98438.44
2019-04-05T02:29:12.399Z,98423.42
2019-04-05T02:32:17.540Z,98417.75
2019-04-05T02:35:22.934Z,98409.44
2019-04-05T02:38:28.195Z,98401.13
2019-04-05T02:41:34.198Z,98410.30
2019-04-05T02:44:41.050Z,98403.58
2019-04-05T02:47:51.893Z,98396.73
2019-04-05T02:51:00.198Z,98403.73
2019-04-05T02:54:06.186Z,98416.23
2019-04-05T02:57:12.320Z,98422.66
2019-04-05T03:00:17.653Z,98419.35
2019-04-05T03:03:23.054Z,98428.62
2019-04-05T03:06:28.371Z,98427.57
2019-04-05T03:09:34.388Z,98431.13
2019-04-05T03:12:40.100Z,98439.45
2019-04-05T03:15:45.675Z,98450.25
2019-04-05T03:18:57.833Z,98453.11
2019-04-05T03:22:06.086Z,98461.10
2019-04-05T03:25:11.574Z,98459.32
2019-04-05T03:28:17.049Z,98467.34
2019-04-05T03:31:25.026Z,98464.67
2019-04-05T03:34:29.343Z,98460.70
2019-04-05T03:37:35.050Z,98452.83
2019-04-05T03:40:40.172Z,98456.40
2019-04-05T03:43:46.803Z,98455.95
2019-04-05T03:46:57.183Z,98453.97
2019-04-05T03:50:01.214Z,98446.95
2019-04-05T03:53:07.036Z,98450.92
2019-04-05T03:56:12.592Z,98445.94
2019-04-05T03:59:18.124Z,98448.41
2019-04-05T04:02:23.732Z,98446.34
2019-04-05T04:05:29.301Z,98451.45
2019-04-05T04:08:34.615Z,98456.56
2019-04-05T04:11:39.930Z,98462.44
2019-04-05T04:14:45.488Z,98462.20
2019-04-05T04:17:50.930Z,98471.72
2019-04-05T04:20:59.521Z,98472.53
2019-04-05T04:24:05.166Z,98470.38
2019-04-05T04:27:10.393Z,98466.16
2019-04-05T04:30:16.293Z,98471.89
2019-04-05T04:33:21.624Z,98471.84
2019-04-05T04:36:27.177Z,98471.27
2019-04-05T04:39:33.842Z,98476.19
2019-04-05T04:42:39.114Z,98468.27
2019-04-05T04:45:44.545Z,98463.63
2019-04-05T04:48:49.968Z,98479.75
2019-04-05T04:51:55.408Z,98481.29
2019-04-05T04:55:00.675Z,98484.01
2019-04-05T04:58:06.394Z,98478.49
2019-04-05T05:01:11.520Z,98484.93
2019-04-05T05:04:17.155Z,98494.38
2019-04-05T05:07:22.302Z,98495.42
2019-04-05T05:10:27.677Z,98496.84
2019-04-05T05:13:34.266Z,98492.08
2019-04-05T05:16:39.569Z,98491.27
2019-04-05T05:19:45.143Z,98495.19
2019-04-05T05:22:50.369Z,98489.48
2019-04-05T05:25:55.695Z,98493.17
2019-04-05T05:29:01.031Z,98495.73
2019-04-05T05:32:09.582Z,98506.30
2019-04-05T05:35:13.659Z,98498.64
2019-04-05T05:38:19.107Z,98510.16
2019-04-05T05:41:24.328Z,98508.94
2019-04-05T05:44:30.736Z,98508.88
2019-04-05T05:47:37.113Z,98500.91
2019-04-05T05:50:42.593Z,98497.06
2019-04-05T05:53:48.157Z,98498.72
2019-04-05T05:56:53.368Z,98490.30
2019-04-05T06:00:00.601Z,98496.88
2019-04-05T06:03:06.414Z,98500.73
2019-04-05T06:06:11.538Z,98491.84
2019-04-05T06:09:16.847Z,98485.31
2019-04-05T06:12:22.063Z,98486.59
2019-04-05T06:15:27.342Z,98492.45
2019-04-05T06:18:32.487Z,98496.02
2019-04-05T06:21:37.590Z,98496.75
2019-04-05T06:24:42.840Z,98495.70
2019-04-05T06:27:48.051Z,98496.75
2019-04-05T06:30:53.341Z,98500.35
2019-04-05T06:33:59.584Z,98504.28
2019-04-05T06:37:04.733Z,98497.75
2019-04-05T06:40:09.943Z,98496.86
2019-04-05T06:43:15.227Z,98503.60
2019-04-05T06:46:20.453Z,98504.94
2019-04-05T06:49:25.601Z,98498.77
2019-04-05T06:52:30.820Z,98491.28
2019-04-05T06:55:36.281Z,98494.98
2019-04-05T06:58:41.392Z,98498.70
2019-04-05T07:01:46.567Z,98494.91
2019-04-05T07:04:51.806Z,98497.58
2019-04-05T07:07:57.082Z,98495.97
2019-04-05T07:11:02.329Z,98495.28
2019-04-05T07:14:07.458Z,98488.60
2019-04-05T07:17:12.610Z,98488.44
2019-04-05T07:20:18.031Z,98490.88
2019-04-05T07:23:23.411Z,98488.15
2019-04-05T07:26:28.556Z,98490.98
2019-04-05T07:29:33.754Z,98494.55
2019-04-05T07:32:38.851Z,98500.56
2019-04-05T07:35:44.074Z,98496.27
2019-04-05T07:38:49.289Z,98500.24
2019-04-05T07:41:54.426Z,98504.64
2019-04-05T07:44:59.553Z,98513.58
2019-04-05T07:48:04.772Z,98509.94
2019-04-05T07:51:09.975Z,98509.17
2019-04-05T07:54:15.067Z,98506.63
2019-04-05T07:57:20.429Z,98503.77
2019-04-05T08:01:00.059Z,98502.84
2019-04-05T08:04:05.569Z,98505.66
2019-04-05T08:07:11.473Z,98516.39
2019-04-05T08:10:16.904Z,98513.22
2019-04-05T08:13:24.241Z,98511.34
2019-04-05T08:16:30.673Z,98507.20
2019-04-05T08:19:35.947Z,98502.81
2019-04-05T08:22:41.168Z,98511.27
2019-04-05T08:25:46.408Z,98516.58
2019-04-05T08:28:51.549Z,98527.10
2019-04-05T08:31:56.694Z,98524.83
2019-04-05T08:35:01.854Z,98535.38
2019-04-05T08:38:07.015Z,98530.54
2019-04-05T08:41:12.170Z,98539.13
2019-04-05T08:44:17.353Z,98537.20
2019-04-05T08:47:22.747Z,98538.39
2019-04-05T08:50:28.017Z,98536.99
2019-04-05T08:53:33.160Z,98540.53
2019-04-05T08:56:38.337Z,98536.63
2019-04-05T08:59:43.536Z,98541.94
2019-04-05T09:02:49.333Z,98539.66
2019-04-05T09:44:25.700Z,98553.47
2019-04-05T09:47:30.819Z,98562.03
2019-04-05T09:50:36.067Z,98560.13
2019-04-05T09:53:41.262Z,98562.55
2019-04-05T09:56:46.455Z,98553.66
2019-04-05T09:59:51.541Z,98555.78
2019-04-05T10:02:56.722Z,98551.09
2019-04-05T10:06:03.162Z,98552.86
2019-04-05T10:09:09.177Z,98546.58
2019-04-05T10:12:14.341Z,98549.05
2019-04-05T10:15:21.738Z,98546.06
2019-04-05T10:18:26.524Z,98556.00
2019-04-05T10:21:31.723Z,98545.42
2019-04-05T10:24:36.872Z,98544.04
2019-04-05T10:27:42.154Z,98546.27
2019-04-05T10:30:47.484Z,98547.53
2019-04-05T10:33:52.632Z,98536.75
2019-04-05T10:36:57.765Z,98541.28
2019-04-05T10:40:02.943Z,98530.78
2019-04-05T10:43:08.317Z,98531.47
2019-04-05T10:46:13.512Z,98529.37
2019-04-05T10:49:18.741Z,98535.76
2019-04-05T10:52:23.967Z,98531.65
2019-04-05T10:55:29.030Z,98533.06
2019-04-05T10:58:34.207Z,98529.97
2019-04-05T13:57:40.888Z,98434.66
2019-04-05T14:00:48.317Z,98438.59
2019-04-05T14:08:10.299Z,98435.62
2019-04-05T14:11:13.530Z,98427.22
2019-04-05T14:14:18.738Z,98422.75
2019-04-05T14:17:24.127Z,98420.26
2019-04-05T14:20:29.295Z,98414.74
2019-04-05T14:23:34.455Z,98410.89
2019-04-05T14:26:39.661Z,98419.29
2019-04-05T14:29:47.562Z,98418.38
2019-04-05T14:46:12.612Z,98416.73
2019-04-05T14:49:17.837Z,98422.23
2019-04-05T14:52:25.503Z,98422.47
2019-04-05T14:55:30.583Z,98417.34
2019-04-05T14:58:35.867Z,98409.95
2019-04-05T15:01:41.072Z,98415.06
2019-04-05T15:04:46.218Z,98420.15
2019-04-05T15:07:52.027Z,98412.10
2019-04-05T15:10:58.313Z,98412.46
2019-04-05T15:14:03.558Z,98409.41
2019-04-05T15:17:08.745Z,98409.84
2019-04-05T15:20:14.426Z,98403.12
2019-04-05T15:23:19.610Z,98412.62
2019-04-05T15:26:24.866Z,98416.18
2019-04-05T15:29:30.956Z,98422.23
2019-04-05T15:32:37.265Z,98424.49
2019-04-05T15:35:42.425Z,98421.81
2019-04-05T15:38:47.692Z,98420.05
2019-04-05T15:41:52.907Z,98418.81
2019-04-05T15:44:58.145Z,98421.92
2019-04-05T15:48:03.383Z,98413.23
2019-04-05T15:51:08.667Z,98418.00
2019-04-05T15:54:13.917Z,98420.12
2019-04-05T15:57:19.123Z,98415.00
2019-04-05T16:00:40.452Z,98418.84
2019-04-05T16:03:45.692Z,98422.89
2019-04-05T16:06:50.912Z,98432.73
2019-04-05T16:09:56.102Z,98424.30
2019-04-05T16:13:01.339Z,98428.09
2019-04-05T16:16:06.542Z,98416.91
2019-04-05T16:19:11.727Z,98423.37
2019-04-05T16:22:16.938Z,98423.19
2019-04-05T16:25:22.184Z,98418.66
2019-04-05T16:28:27.405Z,98426.02
2019-04-05T16:31:32.839Z,98428.95
2019-04-05T16:34:38.099Z,98434.14
2019-04-05T16:37:43.340Z,98432.88
2019-04-05T16:40:48.636Z,98436.84
2019-04-05T16:43:53.841Z,98431.97
2019-04-05T16:46:59.145Z,98435.92
2019-04-05T16:50:04.886Z,98436.80
2019-04-05T16:53:10.081Z,98439.86
2019-04-05T16:56:15.302Z,98436.98
2019-04-05T16:59:20.583Z,98438.61
2019-04-05T17:02:25.831Z,98438.61
2019-04-05T17:05:32.058Z,98441.39
2019-04-05T17:08:37.323Z,98445.69
2019-04-05T17:11:42.413Z,98446.69
2019-04-05T17:14:48.186Z,98451.52
2019-04-05T17:17:53.453Z,98453.81
2019-04-05T17:20:58.707Z,98448.88
2019-04-05T17:24:03.888Z,98453.81
2019-04-05T17:27:09.125Z,98453.09
2019-04-05T17:30:14.545Z,98452.78
2019-04-05T17:33:19.742Z,98450.36
2019-04-05T17:36:25.006Z,98445.15
2019-04-05T17:39:30.219Z,98451.52
2019-04-05T17:42:35.366Z,98457.08
2019-04-05T17:45:40.507Z,98451.91
2019-04-05T17:48:45.714Z,98460.73
2019-04-05T17:51:50.980Z,98459.63
2019-04-05T17:54:56.109Z,98453.66
2019-04-05T17:58:02.950Z,98456.73
2019-04-05T18:01:08.139Z,98459.97
2019-04-05T18:04:13.310Z,98467.22
2019-04-05T18:07:18.533Z,98467.98
2019-04-05T18:10:24.890Z,98470.02
2019-04-05T18:13:30.008Z,98473.58
2019-04-05T18:16:35.280Z,98464.50
2019-04-05T18:19:40.504Z,98466.11
2019-04-05T18:22:45.767Z,98458.47
2019-04-05T18:25:51.052Z,98455.03
2019-04-05T18:28:56.235Z,98446.48
2019-04-05T18:32:01.503Z,98440.89
2019-04-05T18:35:07.957Z,98439.25
2019-04-05T18:38:13.228Z,98447.39
2019-04-05T18:41:18.382Z,98453.16
2019-04-05T18:44:23.762Z,98451.91
2019-04-05T18:47:28.980Z,98463.22
2019-04-05T18:50:34.236Z,98476.96
2019-04-05T18:53:39.456Z,98479.52
2019-04-05T18:56:44.648Z,98490.56
2019-04-05T18:59:49.835Z,98496.28
2019-04-05T19:02:55.112Z,98501.53
2019-04-05T19:06:00.300Z,98503.62
2019-04-05T19:09:07.417Z,98500.59
2019-04-05T19:12:14.204Z,98502.53
2019-04-05T19:15:19.451Z,98504.81
2019-04-05T19:18:24.700Z,98502.92
2019-04-05T19:21:29.953Z,98508.30
2019-04-05T19:24:35.082Z,98507.27
2019-04-05T19:27:40.396Z,98510.48
2019-04-05T19:49:30.969Z,98507.89
2019-04-05T19:52:36.087Z,98509.17
2019-04-05T19:55:41.324Z,98512.86
2019-04-05T19:58:46.514Z,98516.08
2019-04-05T20:01:51.677Z,98511.23
2019-04-05T20:04:56.942Z,98510.86
2019-04-05T20:08:02.172Z,98522.66
2019-04-05T20:11:07.449Z,98513.35
2019-04-05T20:14:12.612Z,98510.30
2019-04-05T20:17:17.887Z,98513.52
2019-04-05T20:20:23.075Z,98508.18
2019-04-05T20:23:28.387Z,98509.87
2019-04-05T20:26:33.559Z,98504.97
2019-04-05T20:29:38.829Z,98520.08
2019-04-05T20:32:44.124Z,98515.52
2019-04-05T20:35:49.491Z,98526.57
2019-04-05T20:38:54.629Z,98520.27
2019-04-05T20:41:59.914Z,98515.98
2019-04-05T20:45:06.304Z,98509.55
2019-04-05T20:48:11.445Z,98513.97
2019-04-05T20:51:16.522Z,98509.99
2019-04-05T20:54:24.798Z,98516.70
2019-04-05T20:57:28.626Z,98518.05
2019-04-05T21:00:33.746Z,98521.19
2019-04-05T21:03:38.933Z,98503.81
2019-04-05T21:06:44.284Z,98513.14
2019-04-05T21:09:49.768Z,98508.67
2019-04-05T21:12:54.972Z,98511.46
2019-04-05T21:16:00.193Z,98514.53
2019-04-05T21:19:05.417Z,98513.55
2019-04-05T21:22:10.588Z,98514.53
2019-04-05T21:25:15.772Z,98511.61
2019-04-05T21:28:20.964Z,98510.20
2019-04-05T21:31:26.249Z,98509.77
2019-04-05T21:34:31.460Z,98510.38
2019-04-05T21:37:36.639Z,98514.25
2019-04-05T21:40:41.773Z,98513.02
2019-04-05T21:43:47.122Z,98526.47
2019-04-05T21:46:52.376Z,98529.75
2019-04-05T21:49:57.631Z,98528.27
2019-04-05T21:53:02.792Z,98531.41
2019-04-05T21:56:11.868Z,98533.31
2019-04-05T21:59:18.661Z,98533.70
2019-04-05T22:02:23.831Z,98538.22
2019-04-05T22:05:29.053Z,98541.11
2019-04-05T22:08:34.311Z,98536.55
2019-04-05T22:11:39.487Z,98539.09
2019-04-05T22:14:44.659Z,98542.03
2019-04-05T22:17:49.786Z,98538.57
2019-04-05T22:20:55.021Z,98545.48
2019-04-05T22:24:00.225Z,98537.72
2019-04-05T22:27:05.428Z,98538.18
2019-04-05T22:30:11.347Z,98537.22
2019-04-05T22:33:16.563Z,98530.27
2019-04-05T22:36:21.744Z,98524.02
2019-04-05T22:39:26.905Z,98533.27
2019-04-05T22:42:32.051Z,98533.00
2019-04-05T22:45:37.355Z,98531.28
2019-04-05T22:48:42.523Z,98534.09
2019-04-05T22:51:47.672Z,98541.41
2019-04-05T22:54:52.822Z,98529.61
2019-04-05T22:57:58.054Z,98533.48
2019-04-05T23:01:03.205Z,98534.30
2019-04-05T23:04:08.523Z,98529.66
2019-04-05T23:07:13.694Z,98529.92
2019-04-05T23:10:18.796Z,98524.24
2019-04-05T23:13:23.981Z,98528.91
2019-04-05T23:16:30.150Z,98529.72
2019-04-05T23:19:35.377Z,98527.05
2019-04-05T23:22:40.569Z,98525.90
2019-04-05T23:25:45.785Z,98523.15
2019-04-05T23:28:50.930Z,98529.33
2019-04-05T23:31:56.228Z,98525.90
2019-04-05T23:35:01.470Z,98533.11
2019-04-05T23:38:06.589Z,98524.55
2019-04-05T23:41:11.732Z,98528.33
2019-04-05T23:44:16.881Z,98525.65
2019-04-05T23:47:22.222Z,98528.11
2019-04-05T23:50:27.463Z,98528.68
2019-04-05T23:53:32.589Z,98527.30
2019-04-05T23:56:37.821Z,98525.56
2019-04-05T23:59:43.087Z,98529.08
